createdAt,value
2022-12-13T00:02:04.223Z,94.15
2022-12-13T00:04:33.583Z,94.14
2022-12-13T00:07:03.149Z,94.35
2022-12-13T00:09:32.912Z,94.31
2022-12-13T00:12:02.366Z,94.24
2022-12-13T00:14:32.798Z,94.45
2022-12-13T00:17:02.869Z,94.34
2022-12-13T00:19:32.756Z,94.40
2022-12-13T00:22:02.460Z,94.88
2022-12-13T00:24:32.344Z,94.46
2022-12-13T00:27:01.959Z,94.18
2022-12-13T00:29:31.763Z,94.29
2022-12-13T00:32:01.719Z,94.32
2022-12-13T00:34:31.708Z,94.35
2022-12-13T00:37:01.262Z,94.19
2022-12-13T00:39:31.042Z,94.16
2022-12-13T00:42:00.427Z,94.33
2022-12-13T00:44:31.281Z,94.25
2022-12-13T00:47:00.476Z,94.15
2022-12-13T00:49:30.348Z,94.15
2022-12-13T00:52:00.196Z,93.89
2022-12-13T00:54:30.451Z,93.81
2022-12-13T00:56:59.687Z,93.93
2022-12-13T00:59:29.384Z,93.96
2022-12-13T01:01:58.589Z,94.26
2022-12-13T01:04:28.126Z,94.12
2022-12-13T01:06:57.338Z,94.14
2022-12-13T01:09:29.804Z,94.27
2022-12-13T01:12:04.293Z,94.05
2022-12-13T01:14:35.797Z,93.81
2022-12-13T01:17:05.253Z,93.72
2022-12-13T01:19:34.794Z,93.97
2022-12-13T01:22:07.174Z,94.24
2022-12-13T01:24:36.883Z,94.19
2022-12-13T01:27:06.464Z,94.31
2022-12-13T01:29:37.404Z,94.10
2022-12-13T01:32:07.112Z,94.32
2022-12-13T01:34:36.587Z,94.31
2022-12-13T01:37:05.811Z,94.13
2022-12-13T01:39:38.018Z,94.11
2022-12-13T01:42:06.657Z,94.00
2022-12-13T01:44:58.887Z,93.92
2022-12-13T01:47:34.355Z,93.78
2022-12-13T01:50:06.781Z,94.04
2022-12-13T01:52:36.340Z,94.11
2022-12-13T01:55:07.786Z,94.00
2022-12-13T01:57:43.766Z,94.17
2022-12-13T02:00:13.319Z,94.11
2022-12-13T02:02:42.751Z,94.08
2022-12-13T02:05:20.497Z,94.19
2022-12-13T02:07:50.240Z,94.48
2022-12-13T02:10:19.596Z,94.75
2022-12-13T02:12:49.005Z,94.68
2022-12-13T02:15:19.986Z,94.25
2022-12-13T02:17:55.652Z,94.21
2022-12-13T02:20:40.221Z,94.47
2022-12-13T02:23:22.461Z,94.45
2022-12-13T02:26:28.423Z,94.25
2022-12-13T02:29:10.278Z,94.07
2022-12-13T02:31:45.257Z,94.19
2022-12-13T02:34:30.274Z,94.05
2022-12-13T02:37:19.446Z,94.23
2022-12-13T02:40:00.712Z,94.13
2022-12-13T02:42:45.088Z,94.45
2022-12-13T02:45:21.539Z,94.12
2022-12-13T02:47:53.498Z,94.11
2022-12-13T02:50:23.413Z,94.23
2022-12-13T02:52:53.808Z,94.25
2022-12-13T02:55:27.944Z,94.43
2022-12-13T02:57:55.337Z,94.49
2022-12-13T03:00:33.838Z,94.37
2022-12-13T03:03:17.488Z,94.62
2022-12-13T03:06:26.332Z,94.88
2022-12-13T03:09:04.721Z,94.73
2022-12-13T03:12:10.173Z,94.84
2022-12-13T03:14:42.827Z,94.80
2022-12-13T03:17:13.870Z,94.71
2022-12-13T03:19:43.306Z,94.70
2022-12-13T03:22:12.558Z,94.65
2022-12-13T03:24:41.830Z,94.62
2022-12-13T03:27:11.093Z,94.61
2022-12-13T03:29:41.867Z,94.55
2022-12-13T03:32:11.100Z,94.49
2022-12-13T03:34:44.910Z,94.56
2022-12-13T03:37:11.734Z,94.50
2022-12-13T03:39:41.114Z,94.57
2022-12-13T03:42:10.353Z,94.60
2022-12-13T03:44:40.025Z,94.40
2022-12-13T03:47:09.241Z,94.34
2022-12-13T03:49:39.081Z,94.39
2022-12-13T03:52:08.493Z,94.36
2022-12-13T03:54:37.724Z,94.38
2022-12-13T03:57:07.012Z,94.40
2022-12-13T03:59:36.268Z,94.26
2022-12-13T04:02:06.123Z,94.23
2022-12-13T04:04:35.609Z,94.27
2022-12-13T04:07:04.844Z,94.21
2022-12-13T04:09:35.775Z,94.35
2022-12-13T04:12:23.198Z,94.21
2022-12-13T04:14:52.446Z,94.07
2022-12-13T04:17:21.684Z,94.07
2022-12-13T04:19:50.897Z,94.15
2022-12-13T04:22:24.794Z,94.10
2022-12-13T04:24:51.282Z,93.98
2022-12-13T04:27:20.584Z,93.81
2022-12-13T04:29:49.848Z,93.73
2022-12-13T04:32:26.892Z,93.85
2022-12-13T04:34:50.183Z,94.44
2022-12-13T04:37:19.806Z,94.75
2022-12-13T04:39:49.175Z,94.78
2022-12-13T04:42:18.470Z,94.95
2022-12-13T04:44:49.893Z,94.73
2022-12-13T04:47:19.329Z,94.79
2022-12-13T04:49:48.579Z,94.80
2022-12-13T04:52:22.640Z,94.87
2022-12-13T04:54:48.791Z,94.82
2022-12-13T04:57:19.844Z,94.75
2022-12-13T04:59:49.075Z,94.59
2022-12-13T05:02:23.651Z,94.67
2022-12-13T05:04:54.303Z,94.44
2022-12-13T05:07:20.530Z,94.45
2022-12-13T05:09:49.771Z,94.41
2022-12-13T05:12:21.944Z,94.38
2022-12-13T05:14:50.272Z,94.58
2022-12-13T05:17:20.291Z,94.39
2022-12-13T05:19:49.701Z,94.39
2022-12-13T05:22:21.072Z,94.48
2022-12-13T05:24:50.620Z,94.44
2022-12-13T05:27:25.356Z,94.36
2022-12-13T05:29:56.168Z,94.38
2022-12-13T05:32:22.613Z,94.38
2022-12-13T05:34:51.854Z,94.26
2022-12-13T05:37:21.799Z,94.15
2022-12-13T05:39:51.026Z,94.28
2022-12-13T05:42:20.584Z,94.29
2022-12-13T05:44:52.267Z,94.16
2022-12-13T05:47:21.649Z,94.00
2022-12-13T05:49:51.957Z,94.02
2022-12-13T05:52:30.625Z,93.93
2022-12-13T05:55:00.996Z,94.04
2022-12-13T05:57:30.301Z,94.47
2022-12-13T05:59:59.528Z,94.40
2022-12-13T06:02:29.666Z,94.64
2022-12-13T06:04:59.059Z,94.44
2022-12-13T06:07:28.837Z,94.16
2022-12-13T06:10:09.767Z,94.28
2022-12-13T06:12:32.355Z,94.40
2022-12-13T06:15:00.992Z,94.19
2022-12-13T06:17:35.479Z,94.02
2022-12-13T06:20:23.333Z,94.30
2022-12-13T06:22:37.652Z,94.66
2022-12-13T06:25:07.246Z,94.29
2022-12-13T06:27:38.337Z,94.16
2022-12-13T06:30:08.206Z,94.30
2022-12-13T06:32:43.775Z,94.35
2022-12-13T06:35:28.008Z,94.26
2022-12-13T06:37:41.078Z,94.11
2022-12-13T06:40:11.236Z,94.09
2022-12-13T06:42:40.803Z,94.08
2022-12-13T06:45:10.565Z,94.08
2022-12-13T06:47:39.800Z,94.13
2022-12-13T06:50:09.939Z,94.08
2022-12-13T06:52:39.239Z,94.33
2022-12-13T06:55:09.327Z,94.14
2022-12-13T06:57:40.753Z,94.17
2022-12-13T07:00:11.088Z,94.01
2022-12-13T07:02:40.642Z,94.01
2022-12-13T07:05:11.406Z,94.10
2022-12-13T07:07:40.987Z,94.34
2022-12-13T07:10:12.708Z,94.46
2022-12-13T07:12:41.930Z,94.23
2022-12-13T07:15:11.852Z,94.02
2022-12-13T07:17:42.911Z,94.12
2022-12-13T07:20:14.708Z,93.86
2022-12-13T07:22:48.471Z,93.71
2022-12-13T07:25:27.986Z,93.66
2022-12-13T07:27:46.895Z,93.84
2022-12-13T07:30:16.358Z,93.84
2022-12-13T07:32:45.770Z,93.80
2022-12-13T07:35:15.150Z,93.72
2022-12-13T07:37:44.656Z,93.70
2022-12-13T07:40:14.133Z,93.73
2022-12-13T07:42:43.371Z,93.67
2022-12-13T07:45:12.805Z,93.79
2022-12-13T07:47:42.490Z,93.73
2022-12-13T07:50:24.175Z,93.71
2022-12-13T07:52:43.249Z,93.90
2022-12-13T07:55:13.571Z,93.73
2022-12-13T07:57:42.821Z,93.62
2022-12-13T08:00:13.178Z,93.58
2022-12-13T08:02:42.524Z,93.75
2022-12-13T08:05:26.051Z,93.68
2022-12-13T08:07:43.295Z,93.68
2022-12-13T08:10:12.600Z,93.62
2022-12-13T08:12:41.978Z,93.74
2022-12-13T08:15:14.311Z,93.63
2022-12-13T08:17:44.095Z,93.61
2022-12-13T08:20:13.333Z,93.51
2022-12-13T08:22:44.717Z,93.30
2022-12-13T08:25:15.951Z,93.27
2022-12-13T08:27:45.447Z,93.15
2022-12-13T08:30:20.492Z,93.05
2022-12-13T08:32:46.163Z,92.99
2022-12-13T08:35:15.928Z,92.90
2022-12-13T08:37:45.536Z,92.90
2022-12-13T08:40:14.757Z,92.78
2022-12-13T08:42:44.214Z,92.68
2022-12-13T08:45:13.712Z,92.73
2022-12-13T08:47:43.260Z,92.73
2022-12-13T08:50:13.220Z,92.32
2022-12-13T08:52:44.428Z,92.49
2022-12-13T08:55:15.435Z,92.12
2022-12-13T08:57:45.395Z,91.79
2022-12-13T09:00:17.237Z,91.28
2022-12-13T09:02:46.812Z,90.85
2022-12-13T09:05:34.167Z,91.33
2022-12-13T09:07:47.663Z,90.84
2022-12-13T09:10:27.098Z,90.89
2022-12-13T09:12:47.982Z,90.88
2022-12-13T09:15:22.249Z,90.49
2022-12-13T09:17:52.631Z,90.55
2022-12-13T09:20:28.694Z,90.25
2022-12-13T09:22:51.373Z,90.30
2022-12-13T09:25:24.385Z,90.13
2022-12-13T09:27:52.252Z,89.88
2022-12-13T09:30:21.509Z,89.29
2022-12-13T09:32:51.109Z,89.18
2022-12-13T09:35:20.347Z,89.09
2022-12-13T09:37:49.599Z,88.87
2022-12-13T09:40:27.010Z,88.22
2022-12-13T09:43:12.453Z,87.72
2022-12-13T09:45:32.002Z,87.75
2022-12-13T09:48:04.747Z,87.52
2022-12-13T09:50:37.291Z,85.97
2022-12-13T09:53:12.208Z,87.10
2022-12-13T09:55:47.055Z,87.12
2022-12-13T09:58:32.090Z,85.94
2022-12-13T10:01:01.443Z,86.10
2022-12-13T10:03:30.797Z,85.35
2022-12-13T10:06:01.888Z,84.78
2022-12-13T10:08:37.058Z,85.07
2022-12-13T10:11:06.405Z,85.38
2022-12-13T10:13:51.415Z,84.36
2022-12-13T10:16:35.863Z,84.36
2022-12-13T10:19:02.217Z,83.52
2022-12-13T10:21:43.771Z,82.71
2022-12-13T10:24:28.954Z,81.62
2022-12-13T10:26:53.524Z,81.92
2022-12-13T10:29:23.123Z,80.32
2022-12-13T10:31:53.659Z,79.38
2022-12-13T10:34:30.488Z,78.89
2022-12-13T10:37:00.120Z,80.40
2022-12-13T10:39:43.798Z,80.77
2022-12-13T10:42:22.486Z,80.19
2022-12-13T10:44:54.395Z,81.54
2022-12-13T10:47:25.683Z,79.83
2022-12-13T10:49:59.807Z,78.60
2022-12-13T10:52:43.935Z,74.51
2022-12-13T10:55:28.833Z,76.60
2022-12-13T10:58:01.336Z,76.37
2022-12-13T11:00:44.601Z,77.25
2022-12-13T11:03:15.699Z,78.79
2022-12-13T11:05:46.470Z,78.44
2022-12-13T11:08:26.078Z,78.91
2022-12-13T11:10:58.145Z,78.13
2022-12-13T11:13:31.494Z,78.85
2022-12-13T11:16:01.721Z,78.86
2022-12-13T11:18:37.225Z,78.75
2022-12-13T11:21:07.966Z,78.52
2022-12-13T11:23:39.274Z,78.88
2022-12-13T11:26:14.534Z,78.87
2022-12-13T11:29:03.607Z,77.96
2022-12-13T11:31:52.723Z,77.54
2022-12-13T11:34:40.021Z,77.24
2022-12-13T11:37:29.538Z,78.14
2022-12-13T11:40:20.486Z,78.19
2022-12-13T11:43:05.350Z,77.90
2022-12-13T11:45:46.780Z,78.91
2022-12-13T11:48:21.633Z,77.57
2022-12-13T11:50:53.482Z,77.11
2022-12-13T11:53:54.748Z,79.21
2022-12-13T11:56:29.422Z,78.50
2022-12-13T11:59:27.464Z,76.18
2022-12-13T12:02:04.947Z,78.58
2022-12-13T12:05:00.022Z,78.13
2022-12-13T12:07:58.522Z,76.69
2022-12-13T12:10:29.865Z,76.45
2022-12-13T12:13:17.334Z,78.39
2022-12-13T12:15:58.704Z,78.42
2022-12-13T12:18:28.844Z,78.33
2022-12-13T12:21:07.489Z,78.66
2022-12-13T12:23:52.650Z,79.41
2022-12-13T12:26:19.220Z,79.23
2022-12-13T12:29:12.391Z,79.70
2022-12-13T12:31:51.385Z,79.30
2022-12-13T12:34:40.685Z,79.67
2022-12-13T12:37:28.717Z,80.06
2022-12-13T12:40:35.714Z,81.63
2022-12-13T12:43:18.083Z,80.84
2022-12-13T12:45:57.754Z,81.18
2022-12-13T12:49:01.906Z,81.35
2022-12-13T12:51:28.935Z,81.09
2022-12-13T12:54:04.458Z,81.15
2022-12-13T12:56:43.349Z,81.04
2022-12-13T12:59:24.911Z,80.93
2022-12-13T13:02:03.515Z,80.74
2022-12-13T13:04:45.509Z,81.41
2022-12-13T13:07:23.341Z,80.87
2022-12-13T13:09:54.969Z,80.70
2022-12-13T13:12:29.955Z,80.53
2022-12-13T13:14:55.300Z,81.31
2022-12-13T13:17:30.530Z,80.82
2022-12-13T13:20:23.146Z,80.82
2022-12-13T13:23:17.478Z,81.12
2022-12-13T13:25:35.215Z,81.30
2022-12-13T13:28:13.960Z,81.64
2022-12-13T13:31:09.295Z,81.29
2022-12-13T13:33:49.958Z,81.34
2022-12-13T13:36:46.018Z,81.37
2022-12-13T13:39:19.120Z,81.78
2022-12-13T13:41:51.647Z,82.12
2022-12-13T13:44:33.303Z,81.89
2022-12-13T13:47:24.309Z,81.77
2022-12-13T13:50:11.482Z,82.42
2022-12-13T13:53:00.893Z,82.56
2022-12-13T13:55:39.117Z,82.66
2022-12-13T13:58:43.907Z,82.96
2022-12-13T14:01:24.962Z,83.68
2022-12-13T14:04:24.337Z,82.91
2022-12-13T14:07:09.543Z,83.05
2022-12-13T14:10:01.050Z,82.65
2022-12-13T14:12:35.977Z,83.03
2022-12-13T14:15:26.350Z,83.00
2022-12-13T14:18:21.322Z,83.14
2022-12-13T14:21:05.128Z,83.13
2022-12-13T14:23:58.697Z,83.33
2022-12-13T14:26:51.607Z,82.78
2022-12-13T14:29:27.202Z,83.32
2022-12-13T14:31:57.014Z,83.83
2022-12-13T14:34:31.095Z,83.64
2022-12-13T14:37:05.975Z,84.10
2022-12-13T14:39:35.388Z,84.10
2022-12-13T14:42:08.885Z,84.07
2022-12-13T14:44:38.193Z,84.68
2022-12-13T14:47:09.009Z,84.32
2022-12-13T14:49:40.365Z,84.30
2022-12-13T14:52:30.662Z,84.55
2022-12-13T14:55:04.241Z,84.28
2022-12-13T14:57:35.508Z,84.25
2022-12-13T15:00:32.687Z,84.61
2022-12-13T15:03:04.121Z,84.67
2022-12-13T15:05:47.163Z,84.76
2022-12-13T15:08:16.633Z,85.22
2022-12-13T15:10:48.132Z,85.27
2022-12-13T15:13:25.965Z,85.60
2022-12-13T15:16:10.722Z,86.01
2022-12-13T15:18:36.085Z,86.16
2022-12-13T15:21:16.069Z,86.41
2022-12-13T15:23:48.781Z,86.37
2022-12-13T15:26:29.047Z,86.59
2022-12-13T15:28:57.689Z,86.64
2022-12-13T15:31:34.999Z,87.02
2022-12-13T15:34:31.202Z,86.81
2022-12-13T15:37:28.342Z,87.14
2022-12-13T15:39:48.220Z,87.12
2022-12-13T15:42:23.907Z,87.35
2022-12-13T15:44:55.446Z,87.11
2022-12-13T15:47:28.172Z,87.02
2022-12-13T15:50:05.948Z,87.25
2022-12-13T15:52:38.133Z,87.24
2022-12-13T15:55:11.243Z,87.27
2022-12-13T15:57:53.011Z,87.21
2022-12-13T16:00:34.475Z,86.85
2022-12-13T16:03:15.282Z,86.90
2022-12-13T16:05:59.254Z,87.35
2022-12-13T16:08:33.706Z,87.63
2022-12-13T16:11:03.624Z,87.92
2022-12-13T16:13:37.342Z,88.03
2022-12-13T16:16:28.485Z,88.41
2022-12-13T16:18:59.599Z,88.45
2022-12-13T16:21:30.281Z,88.68
2022-12-13T16:23:59.819Z,88.94
2022-12-13T16:26:30.070Z,89.22
2022-12-13T16:29:00.063Z,89.23
2022-12-13T16:31:32.826Z,89.26
2022-12-13T16:34:03.046Z,89.49
2022-12-13T16:36:32.651Z,89.39
2022-12-13T16:39:03.079Z,89.43
2022-12-13T16:41:34.379Z,89.39
2022-12-13T16:44:04.945Z,89.46
2022-12-13T16:47:15.259Z,89.40
2022-12-13T16:49:08.515Z,89.36
2022-12-13T16:51:37.376Z,89.21
2022-12-13T16:54:06.677Z,89.32
2022-12-13T16:56:35.910Z,89.19
2022-12-13T16:59:05.134Z,89.16
2022-12-13T17:01:34.438Z,89.22
2022-12-13T17:04:10.946Z,88.82
2022-12-13T17:06:34.638Z,88.82
2022-12-13T17:09:03.875Z,88.63
2022-12-13T17:11:35.097Z,88.15
2022-12-13T17:14:05.990Z,88.03
2022-12-13T17:16:35.552Z,87.66
2022-12-13T17:19:05.437Z,87.60
2022-12-13T17:21:35.418Z,87.65
2022-12-13T17:24:05.275Z,87.15
2022-12-13T17:26:35.121Z,87.36
2022-12-13T17:29:05.048Z,87.12
2022-12-13T17:31:36.161Z,87.40
2022-12-13T17:34:05.990Z,87.40
2022-12-13T17:36:35.229Z,86.92
2022-12-13T17:39:04.850Z,87.02
2022-12-13T17:41:34.218Z,86.45
2022-12-13T17:44:03.482Z,86.33
2022-12-13T17:46:34.532Z,86.33
2022-12-13T17:49:04.626Z,86.26
2022-12-13T17:51:34.076Z,85.97
2022-12-13T17:54:03.768Z,85.93
2022-12-13T17:56:33.090Z,85.85
2022-12-13T17:59:03.384Z,85.72
2022-12-13T18:01:32.698Z,85.81
2022-12-13T18:04:02.027Z,85.61
2022-12-13T18:06:32.031Z,85.55
2022-12-13T18:09:02.007Z,85.84
2022-12-13T18:11:33.635Z,85.80
2022-12-13T18:14:04.821Z,85.68
2022-12-13T18:16:38.022Z,85.72
2022-12-13T18:19:07.947Z,85.81
2022-12-13T18:21:38.106Z,85.93
2022-12-13T18:24:07.991Z,86.05
2022-12-13T18:26:37.543Z,85.89
2022-12-13T18:29:06.874Z,86.01
2022-12-13T18:31:36.266Z,86.47
2022-12-13T18:34:05.905Z,86.36
2022-12-13T18:36:35.467Z,86.41
2022-12-13T18:39:05.474Z,86.29
2022-12-13T18:41:34.686Z,86.48
2022-12-13T18:44:06.751Z,86.65
2022-12-13T18:46:38.389Z,86.60
2022-12-13T18:49:07.678Z,86.82
2022-12-13T18:51:37.997Z,86.77
2022-12-13T18:54:07.823Z,86.55
2022-12-13T18:56:37.707Z,86.55
2022-12-13T18:59:07.018Z,86.49
2022-12-13T19:01:36.462Z,86.67
2022-12-13T19:04:06.566Z,86.84
2022-12-13T19:06:35.924Z,86.79
2022-12-13T19:09:05.252Z,86.71
2022-12-13T19:11:34.825Z,86.68
2022-12-13T19:14:04.443Z,86.76
2022-12-13T19:16:34.398Z,86.62
2022-12-13T19:19:03.830Z,87.10
2022-12-13T19:21:33.237Z,86.93
2022-12-13T19:24:02.560Z,86.84
2022-12-13T19:26:31.866Z,86.34
2022-12-13T19:29:02.200Z,86.18
2022-12-13T19:31:32.783Z,86.11
2022-12-13T19:34:03.667Z,85.94
2022-12-13T19:36:33.956Z,86.06
2022-12-13T19:39:03.259Z,86.21
2022-12-13T19:41:33.632Z,86.03
2022-12-13T19:44:04.663Z,86.19
2022-12-13T19:46:34.830Z,85.93
2022-12-13T19:49:04.516Z,85.75
2022-12-13T19:51:39.242Z,85.88
2022-12-13T19:54:05.045Z,85.81
2022-12-13T19:56:34.742Z,86.00
2022-12-13T19:59:04.081Z,85.62
2022-12-13T20:01:33.655Z,85.51
2022-12-13T20:04:03.031Z,85.74
2022-12-13T20:06:32.466Z,85.39
2022-12-13T20:09:02.393Z,85.40
2022-12-13T20:11:32.149Z,85.50
2022-12-13T20:14:01.767Z,85.39
2022-12-13T20:16:31.394Z,85.62
2022-12-13T20:19:03.015Z,85.73
2022-12-13T20:21:32.457Z,85.91
2022-12-13T20:24:03.819Z,85.96
2022-12-13T20:26:33.903Z,85.84
2022-12-13T20:29:03.788Z,85.76
2022-12-13T20:31:34.508Z,85.72
2022-12-13T20:34:07.756Z,85.85
2022-12-13T20:36:37.719Z,85.76
2022-12-13T20:39:08.116Z,85.91
2022-12-13T20:41:38.020Z,85.96
2022-12-13T20:44:09.076Z,86.04
2022-12-13T20:46:38.764Z,86.08
2022-12-13T20:49:09.951Z,86.27
2022-12-13T20:51:41.693Z,85.80
2022-12-13T20:54:10.941Z,85.95
2022-12-13T20:56:40.962Z,85.53
2022-12-13T20:59:12.945Z,85.87
2022-12-13T21:01:42.942Z,86.14
2022-12-13T21:04:12.642Z,86.01
2022-12-13T21:06:43.245Z,86.19
2022-12-13T21:09:13.267Z,85.81
2022-12-13T21:11:47.297Z,85.90
2022-12-13T21:14:23.279Z,85.86
2022-12-13T21:17:00.512Z,85.46
2022-12-13T21:19:39.114Z,85.68
2022-12-13T21:22:04.241Z,85.80
2022-12-13T21:24:33.536Z,86.11
2022-12-13T21:27:03.001Z,85.84
2022-12-13T21:29:32.273Z,85.50
2022-12-13T21:32:01.950Z,85.64
2022-12-13T21:34:31.234Z,85.45
2022-12-13T21:37:00.693Z,84.98
2022-12-13T21:39:30.958Z,84.91
2022-12-13T21:42:00.748Z,84.84
2022-12-13T21:44:29.978Z,84.92
2022-12-13T21:47:14.831Z,84.77
2022-12-13T21:49:30.745Z,84.81
2022-12-13T21:52:00.301Z,84.25
2022-12-13T21:54:29.523Z,84.68
2022-12-13T21:57:16.923Z,84.69
2022-12-13T21:59:46.261Z,84.10
2022-12-13T22:02:19.002Z,84.11
2022-12-13T22:04:56.921Z,84.25
2022-12-13T22:07:28.766Z,84.58
2022-12-13T22:09:59.332Z,84.33
2022-12-13T22:12:41.478Z,84.04
2022-12-13T22:15:12.968Z,83.72
2022-12-13T22:17:43.351Z,83.79
2022-12-13T22:20:15.360Z,83.78
2022-12-13T22:22:44.592Z,83.76
2022-12-13T22:25:13.743Z,83.76
2022-12-13T22:27:43.174Z,83.62
2022-12-13T22:30:14.925Z,83.76
2022-12-13T22:32:44.329Z,84.32
2022-12-13T22:35:14.642Z,84.52
2022-12-13T22:37:44.255Z,84.31
2022-12-13T22:40:15.215Z,84.46
2022-12-13T22:42:48.337Z,84.51
2022-12-13T22:45:15.858Z,84.22
2022-12-13T22:47:45.112Z,83.95
2022-12-13T22:50:14.669Z,84.02
2022-12-13T22:52:44.255Z,83.67
2022-12-13T22:55:13.521Z,83.58
2022-12-13T22:57:43.438Z,83.25
2022-12-13T23:00:15.061Z,83.41
2022-12-13T23:02:44.326Z,83.09
2022-12-13T23:05:13.817Z,82.85
2022-12-13T23:07:43.346Z,82.75
2022-12-13T23:10:15.937Z,82.84
2022-12-13T23:13:03.899Z,82.66
2022-12-13T23:15:36.307Z,82.67
2022-12-13T23:18:06.494Z,82.38
2022-12-13T23:20:35.904Z,82.26
2022-12-13T23:23:06.943Z,82.48
2022-12-13T23:25:36.177Z,82.31
2022-12-13T23:28:06.051Z,82.39
2022-12-13T23:30:37.036Z,82.60
2022-12-13T23:33:07.338Z,82.35
2022-12-13T23:35:36.566Z,82.25
2022-12-13T23:38:05.786Z,82.30
2022-12-13T23:40:35.043Z,82.29
2022-12-13T23:43:04.418Z,81.74
2022-12-13T23:45:33.652Z,82.09
2022-12-13T23:48:03.212Z,81.40
2022-12-13T23:50:32.462Z,81.02
2022-12-13T23:53:01.999Z,80.85
2022-12-13T23:55:31.262Z,81.35
2022-12-13T23:58:00.730Z,81.51
